• Join FlightAware (Why Join?)
  • Login
  • US Flag 
12:58PM EDT


 

Airport Tracker/Info


-or-


 

Live Flight TrackerFlight Track Log ✈ LIA553 ✈ 15-May-2013 ✈ TIST / STT - TQPF / AXA

Flight Track Log - Related Links

Times and Time Zones

All times are in EDT time to prevent confusion due to time zone crossing. See the LIA553 flight status page for this flight to view local times or setup timezone preferences in your user account.

Time Position Orientation Groundspeed Altitude Reporting Facility
EDT Latitude Longitude Course Direction KTS MPH feet Rate Location/Type
02:14PM 18.3333 -64.9833 251° West 140 161 1,100  Level San Juan Center
02:15PM 18.3167 -65.0333 251° West 150 173 2,400 1,200 Climbing San Juan Center
02:16PM 18.3000 -65.0167 136° Southeast 140 161 3,600 1,020 Climbing San Juan Center
02:17PM 18.3000 -64.9667 90° East 180 207 4,500 840 Climbing San Juan Center
02:18PM 18.3000 -64.9000 90° East 200 230 5,400 960 Climbing San Juan Center
02:19PM 18.3000 -64.8333 90° East 210 242 6,500 960 Climbing San Juan Center
02:20PM 18.3000 -64.7833 90° East 210 242 7,400 780 Climbing San Juan Center
02:21PM 18.3000 -64.7167 90° East 220 253 8,100 600 Climbing San Juan Center
02:22PM 18.3167 -64.6500 75° East 230 265 8,700 420 Climbing San Juan Center
02:23PM 18.3167 -64.5833 90° East 240 276 9,000 420 Climbing San Juan Center
02:24PM 18.3167 -64.5000 90° East 250 288 9,600 600 Climbing San Juan Center
02:25PM 18.3167 -64.4333 90° East 260 299 10,300 660 Climbing San Juan Center
02:26PM 18.3167 -64.3500 90° East 240 276 11,000 300 Climbing San Juan Center
02:27PM 18.3333 -64.2833 75° East 260 299 11,000  Level San Juan Center
02:28PM 18.3333 -64.2000 90° East 270 311 11,000  Level San Juan Center
02:29PM 18.3333 -64.1333 90° East 270 311 11,000  Level San Juan Center
02:30PM 18.3333 -64.0500 90° East 270 311 11,000 -180 Level San Juan Center
02:31PM 18.3333 -63.9667 90° East 270 311 10,700 -480 Descending San Juan Center
02:32PM 18.3500 -63.8833 78° East 290 334 10,100 -660 Descending San Juan Center
02:33PM 18.3500 -63.8000 90° East 300 345 9,400 -720 Descending San Juan Center
02:35PM 18.3826 -63.6696 75° East  Level FlightAware Approximate
02:42PM 18.2430 -63.1824 113° Southeast  Level FlightAware Approximate
02:43PM 18.2160 -63.1153 118° Southeast  Level FlightAware Approximate
02:44PM 18.2000 -63.0500 90° East  Level FlightAware Approximate
02:45PM 18.2048 -63.0551 90° East  Level Estimated
02:46PM 18.2000 -63.0500 90° East  Level FlightAware Approximate
02:47PM 18.2048 -63.0551 90° East  Level Estimated
02:48PM 18.2000 -63.0500 90° East  Level FlightAware Approximate
02:49PM 18.2048 -63.0551 90° East  Level Estimated
02:50PM 18.2000 -63.0500 90° East  Level FlightAware Approximate
02:51PM 18.2048 -63.0551 90° East  Level Estimated
02:52PM 18.2000 -63.0500 90° East  Level FlightAware Approximate
02:53PM 18.2048 -63.0551 90° East  Level Estimated
02:54PM 18.2000 -63.0500 90° East  Level FlightAware Approximate
02:55PM 18.2048 -63.0551 90° East  Level Estimated
02:56PM 18.2000 -63.0500 90° East  Level FlightAware Approximate
02:57PM 18.2048 -63.0551 90° East  Level Estimated
02:58PM 18.2000 -63.0500 90° East  Level FlightAware Approximate
02:59PM 18.2048 -63.0551 90° East  Level Estimated